Lake Arrowhead, CA

5:59 AM PDT on September 19, 2014 (GMT -0700)
Lake Arrowhead | Change Station
CLOSE
Current Station
Personal Weather Station
Location: Blue Jay, CA
Elevation: 5200 ft
Nearby Weather Stations

Elev 5200 ft 34.27 °N, 117.22 °W | Updated 20 seconds ago

Clear
Clear
51.0 °F
Feels Like 51.0 °F
N
0.0
Wind Variable Wind from South
Gusts 1.0 mph

Today
High -- | Low -- °F
--% Chance of Precip.
Yesterday
High -- | Low -- °F
Precip. -- in
6:34 AM 6:49 PM
Waning Crescent, 19% visible
Pressure 30.09 in
Visibility 10.0 miles
Clouds Clear
Dew Point 51 °F
Humidity 100%
Rainfall 0.00 in
Snow Depth 0 in , 1 in , 0 in
UV 0 out of 12
Pollen 6.90 out of 12
Ozone Good
Flu Activity Not available.
METAR KL35 191235Z AUTO 00000KT 10SM CLR 09/07 A3009 RMK AO2

More Conditions Fewer Conditions

Pressure 30.09 in
Visibility 10.0 miles
Clouds Clear
Dew Point 51 °F
Humidity 100%
Rainfall 0.00 in
Snow Depth 0 in , 1 in , 0 in
UV 0 out of 12
Pollen 6.90 out of 12
Ozone Good
Flu Activity Not available.
METAR KL35 191235Z AUTO 00000KT 10SM CLR 09/07 A3009 RMK AO2

More Conditions Fewer Conditions

10-Day Weather Forecast

Almanac

Astronomy

Sep. 19, 2014 Rise Set
Actual Time 6:34 AM PDT 6:49 PM PDT
Civil Twilight 6:09 AM PDT 7:14 PM PDT
Nautical Twilight 5:40 AM PDT 7:44 PM PDT
Astronomical Twilight 5:10 AM PDT 8:13 PM PDT
Moon 2:32 AM PDT 4:13 PM PDT
Length of Visible Light 13h 04m
Length of Day
12h 14m
Tomorrow will be 2m 7s shorter.
Waning Crescent, 19% of the Moon is Illuminated
Today
Waning Crescent
Sep 24
New
Oct 1
First Quarter
Oct 8
Full
Oct 15
Last Quarter

Today's Extremes

State Highs State Lows

Community

WunderPhotos

Upload Photos

1,754,602 photos uploaded!

Nearby

Air Quality

  Air Quality AQ Index Pollutant
Yesterday Good
OZONE
Yesterday Good
PM2.5
Current Good
OZONE
Friday Moderate
OZONE
Friday Good
PM10
Friday Good
CO
Friday Good
NO2

Snow Depth

Station Depth Elevation
Monitor Pass 0 in 8350 ft
Spratt Creek 1 in 6200 ft
Ebbetts Pass 0 in 8700 ft
Independence Lake 0 in 8450 ft
Adin Mountain 2 in 6200 ft

Earthquake Activity

City Distance Mag. Time & Date
Aguanga, California 60 miles 2.5 1:38 AM PDT
2014-09-19
Minimum magnitude displayed is 2.5.

Coastal Water Temperatures

Place Temperature
No Stations Reporting

Nearby Weather Stations